createdAt,value
2018-12-26T00:00:13.698Z,28.70
2018-12-26T00:02:54.743Z,30.83
2018-12-26T00:05:36.876Z,30.17
2018-12-26T00:08:18.306Z,31.90
2018-12-26T00:10:59.300Z,29.57
2018-12-26T00:13:40.967Z,32.13
2018-12-26T00:16:21.622Z,29.27
2018-12-26T00:19:02.550Z,29.30
2018-12-26T00:21:43.294Z,31.20
2018-12-26T00:24:23.879Z,28.53
2018-12-26T00:27:04.923Z,31.03
2018-12-26T00:29:48.870Z,30.33
2018-12-26T00:32:29.882Z,29.23
2018-12-26T00:35:09.578Z,30.50
2018-12-26T00:37:50.405Z,33.23
2018-12-26T00:40:31.605Z,30.13
2018-12-26T00:43:12.419Z,29.37
2018-12-26T00:45:53.562Z,28.97
2018-12-26T00:48:34.426Z,29.70
2018-12-26T00:51:15.272Z,30.20
2018-12-26T00:53:57.116Z,28.93
2018-12-26T00:56:38.731Z,29.87
2018-12-26T00:59:20.144Z,26.60
2018-12-26T01:02:01.224Z,30.40
2018-12-26T01:04:42.028Z,29.33
2018-12-26T01:07:23.011Z,27.93
2018-12-26T01:10:04.578Z,28.30
2018-12-26T01:12:44.268Z,29.93
2018-12-26T01:15:25.988Z,28.67
2018-12-26T01:18:05.567Z,26.73
2018-12-26T01:20:47.083Z,26.17
2018-12-26T01:23:28.418Z,26.10
2018-12-26T01:26:09.444Z,27.33
2018-12-26T01:28:51.103Z,27.60
2018-12-26T01:31:31.982Z,27.10
2018-12-26T01:34:13.734Z,26.23
2018-12-26T01:36:55.323Z,28.90
2018-12-26T01:39:37.287Z,29.57
2018-12-26T01:42:18.114Z,29.40
2018-12-26T01:44:59.826Z,31.50
2018-12-26T01:47:40.419Z,31.83
2018-12-26T01:50:22.178Z,30.63
2018-12-26T01:53:03.743Z,30.27
2018-12-26T01:55:44.671Z,28.87
2018-12-26T01:58:26.323Z,30.83
2018-12-26T02:01:07.796Z,26.50
2018-12-26T02:03:48.335Z,26.70
2018-12-26T02:06:29.215Z,25.40
2018-12-26T02:09:11.027Z,26.30
2018-12-26T02:11:52.530Z,24.10
2018-12-26T02:14:33.067Z,24.00
2018-12-26T02:17:12.447Z,23.00
2018-12-26T02:20:00.981Z,23.40
2018-12-26T02:22:42.168Z,20.73
2018-12-26T02:25:23.142Z,22.03
2018-12-26T02:28:03.663Z,21.77
2018-12-26T02:30:45.095Z,21.67
2018-12-26T02:33:26.529Z,24.20
2018-12-26T02:36:08.216Z,21.60
2018-12-26T02:38:50.099Z,21.03
2018-12-26T02:41:31.001Z,20.77
2018-12-26T02:44:12.303Z,20.33
2018-12-26T02:46:53.537Z,19.90
2018-12-26T02:49:33.597Z,21.03
2018-12-26T02:52:22.131Z,18.67
2018-12-26T02:55:03.617Z,21.87
2018-12-26T02:57:44.620Z,19.13
2018-12-26T03:00:24.488Z,21.60
2018-12-26T03:03:13.029Z,20.53
2018-12-26T03:05:53.666Z,19.63
2018-12-26T03:08:35.034Z,21.83
2018-12-26T03:11:15.727Z,21.83
2018-12-26T03:13:57.269Z,22.57
2018-12-26T03:16:38.567Z,23.43
2018-12-26T03:19:19.937Z,24.03
2018-12-26T03:22:01.568Z,22.83
2018-12-26T03:24:43.105Z,23.23
2018-12-26T03:27:24.799Z,24.10
2018-12-26T03:30:05.998Z,21.33
2018-12-26T03:32:46.836Z,22.67
2018-12-26T03:35:28.112Z,22.30
2018-12-26T03:38:09.070Z,22.77
2018-12-26T03:40:49.872Z,21.83
2018-12-26T03:43:30.781Z,20.30
2018-12-26T03:46:10.317Z,20.90
2018-12-26T03:48:58.896Z,21.17
2018-12-26T03:51:40.633Z,19.63
2018-12-26T03:54:21.762Z,18.43
2018-12-26T03:57:06.284Z,18.40
2018-12-26T03:59:46.012Z,17.10
2018-12-26T04:02:27.478Z,18.67
2018-12-26T04:05:08.611Z,20.57
2018-12-26T04:07:49.947Z,18.90
2018-12-26T04:10:31.135Z,18.13
2018-12-26T04:13:11.794Z,18.43
2018-12-26T04:15:51.628Z,18.43
2018-12-26T04:18:33.259Z,18.37
2018-12-26T04:21:13.924Z,16.97
2018-12-26T04:23:55.412Z,15.80
2018-12-26T04:26:36.590Z,17.27
2018-12-26T04:29:17.478Z,16.77
2018-12-26T04:31:58.059Z,16.03
2018-12-26T04:34:39.497Z,15.27
2018-12-26T04:37:20.805Z,14.17
2018-12-26T04:40:01.867Z,14.40
2018-12-26T04:42:42.583Z,15.17
2018-12-26T04:45:24.412Z,13.40
2018-12-26T04:48:05.493Z,14.03
2018-12-26T04:50:46.254Z,13.50
2018-12-26T04:53:27.367Z,13.23
2018-12-26T04:56:08.452Z,12.57
2018-12-26T04:58:49.348Z,12.30
2018-12-26T05:01:30.565Z,14.03
2018-12-26T05:04:10.297Z,15.97
2018-12-26T05:06:58.868Z,15.93
2018-12-26T05:09:41.055Z,14.47
2018-12-26T05:12:21.864Z,14.40
2018-12-26T05:15:03.103Z,15.43
2018-12-26T05:17:44.365Z,15.73
2018-12-26T05:20:25.362Z,14.50
2018-12-26T05:23:06.878Z,14.70
2018-12-26T05:25:48.939Z,14.50
2018-12-26T05:28:29.905Z,14.97
2018-12-26T05:31:10.842Z,16.03
2018-12-26T05:33:51.776Z,15.13
2018-12-26T05:36:32.719Z,13.93
2018-12-26T05:39:13.445Z,15.07
2018-12-26T05:41:54.231Z,14.30
2018-12-26T05:44:33.663Z,15.27
2018-12-26T05:47:22.196Z,14.60
2018-12-26T05:50:03.284Z,13.83
2018-12-26T05:52:43.274Z,15.57
2018-12-26T05:55:32.116Z,12.93
2018-12-26T05:58:13.596Z,13.40
2018-12-26T06:00:55.124Z,14.80
2018-12-26T06:03:36.285Z,12.90
2018-12-26T06:06:17.567Z,14.40
2018-12-26T06:08:59.297Z,14.07
2018-12-26T06:11:41.004Z,14.93
2018-12-26T06:14:22.751Z,13.47
2018-12-26T06:17:04.501Z,13.93
2018-12-26T06:19:45.965Z,14.30
2018-12-26T06:22:27.521Z,13.33
2018-12-26T06:25:09.351Z,12.97
2018-12-26T06:27:51.507Z,14.13
2018-12-26T06:30:33.487Z,13.07
2018-12-26T06:33:14.163Z,13.40
2018-12-26T06:35:55.517Z,14.03
2018-12-26T06:38:36.721Z,15.03
2018-12-26T06:41:18.423Z,15.17
2018-12-26T06:43:59.355Z,16.30
2018-12-26T06:46:40.481Z,17.43
2018-12-26T06:49:22.355Z,18.17
2018-12-26T06:52:03.324Z,18.57
2018-12-26T06:54:44.647Z,18.00
2018-12-26T06:57:26.236Z,18.93
2018-12-26T07:00:07.783Z,20.17
2018-12-26T07:02:48.732Z,19.23
2018-12-26T07:05:29.654Z,17.53
2018-12-26T07:08:11.172Z,18.20
2018-12-26T07:10:52.197Z,17.70
2018-12-26T07:13:33.240Z,19.60
2018-12-26T07:16:14.481Z,19.30
2018-12-26T07:18:55.964Z,18.63
2018-12-26T07:21:37.003Z,19.47
2018-12-26T07:24:18.327Z,19.53
2018-12-26T07:26:59.541Z,19.77
2018-12-26T07:29:40.259Z,20.43
2018-12-26T07:32:21.792Z,19.87
2018-12-26T07:35:03.411Z,20.77
2018-12-26T07:37:43.510Z,20.93
2018-12-26T07:40:24.907Z,19.87
2018-12-26T07:43:06.565Z,19.20
2018-12-26T07:45:48.031Z,19.67
2018-12-26T07:48:29.041Z,19.03
2018-12-26T07:51:17.687Z,20.77
2018-12-26T07:53:58.908Z,20.10
2018-12-26T07:56:38.223Z,23.57
2018-12-26T07:59:19.535Z,20.53
2018-12-26T08:02:00.938Z,22.77
2018-12-26T08:04:42.574Z,22.37
2018-12-26T08:07:23.606Z,24.27
2018-12-26T08:10:03.385Z,24.50
2018-12-26T08:12:45.117Z,25.40
2018-12-26T08:15:26.778Z,26.63
2018-12-26T08:18:07.408Z,26.40
2018-12-26T08:20:46.871Z,27.20
2018-12-26T08:23:28.083Z,24.33
2018-12-26T08:26:07.657Z,26.23
2018-12-26T08:28:56.259Z,27.10
2018-12-26T08:31:37.690Z,28.13
2018-12-26T08:34:17.046Z,26.70
2018-12-26T08:36:58.360Z,27.17
2018-12-26T08:39:39.505Z,27.30
2018-12-26T08:42:21.200Z,25.43
2018-12-26T08:45:02.540Z,27.93
2018-12-26T08:47:44.112Z,27.57
2018-12-26T08:50:23.933Z,26.53
2018-12-26T08:53:12.383Z,25.90
2018-12-26T08:55:53.773Z,25.93
2018-12-26T08:58:35.519Z,27.00
2018-12-26T09:01:17.202Z,27.57
2018-12-26T09:03:58.454Z,27.40
2018-12-26T09:06:40.037Z,34.33
2018-12-26T09:09:21.634Z,26.43
2018-12-26T09:12:02.731Z,30.97
2018-12-26T09:14:43.321Z,29.53
2018-12-26T09:17:22.639Z,28.10
2018-12-26T09:20:11.401Z,29.50
2018-12-26T09:22:53.215Z,31.27
2018-12-26T09:25:34.628Z,32.47
2018-12-26T09:28:15.450Z,28.20
2018-12-26T09:30:56.511Z,27.17
2018-12-26T09:33:35.945Z,27.27
2018-12-26T09:36:17.047Z,28.10
2018-12-26T09:38:58.117Z,30.47
2018-12-26T09:41:39.148Z,28.57
2018-12-26T09:44:20.911Z,25.73
2018-12-26T09:47:02.138Z,29.47
2018-12-26T09:49:43.705Z,30.53
2018-12-26T09:52:25.154Z,30.00
2018-12-26T09:55:05.768Z,30.87
2018-12-26T09:57:45.223Z,31.00
2018-12-26T10:00:33.849Z,31.87
2018-12-26T10:03:15.413Z,28.10
2018-12-26T10:05:56.607Z,26.33
2018-12-26T10:08:37.616Z,28.00
2018-12-26T10:11:19.358Z,26.77
2018-12-26T10:13:58.976Z,27.33
2018-12-26T10:16:47.666Z,27.70
2018-12-26T10:19:28.834Z,29.73
2018-12-26T10:22:10.633Z,29.77
2018-12-26T10:24:52.302Z,28.87
2018-12-26T10:27:34.211Z,28.93
2018-12-26T10:30:14.836Z,30.20
2018-12-26T10:32:55.904Z,29.93
2018-12-26T10:35:36.503Z,31.77
2018-12-26T10:38:17.554Z,30.97
2018-12-26T10:40:59.112Z,31.40
2018-12-26T10:43:38.775Z,29.23
2018-12-26T10:46:27.054Z,30.27
2018-12-26T10:49:08.797Z,31.57
2018-12-26T10:51:50.205Z,29.27
2018-12-26T10:54:31.857Z,27.60
2018-12-26T10:57:11.659Z,28.83
2018-12-26T10:59:51.064Z,28.67
2018-12-26T11:02:32.640Z,30.00
2018-12-26T11:05:13.668Z,31.60
2018-12-26T11:07:54.647Z,27.80
2018-12-26T11:10:35.310Z,29.87
2018-12-26T11:13:15.608Z,27.63
2018-12-26T11:16:03.957Z,28.87
2018-12-26T11:18:44.911Z,26.53
2018-12-26T11:21:24.531Z,26.00
2018-12-26T11:24:05.442Z,25.97
2018-12-26T11:26:47.373Z,24.93
2018-12-26T11:29:28.439Z,27.03
2018-12-26T11:32:10.069Z,25.27
2018-12-26T11:34:51.351Z,32.20
2018-12-26T11:37:32.234Z,28.87
2018-12-26T11:40:13.044Z,27.93
2018-12-26T11:42:53.880Z,24.97
2018-12-26T11:45:35.443Z,26.67
2018-12-26T11:48:16.658Z,25.23
2018-12-26T11:50:58.061Z,23.93
2018-12-26T11:53:39.906Z,26.23
2018-12-26T11:56:21.219Z,26.30
2018-12-26T11:59:01.858Z,27.87
2018-12-26T12:01:43.712Z,30.07
2018-12-26T12:04:25.551Z,27.53
2018-12-26T12:07:07.470Z,28.50
2018-12-26T12:09:48.413Z,26.73
2018-12-26T12:12:29.607Z,29.13
2018-12-26T12:15:11.177Z,29.90
2018-12-26T12:17:51.724Z,33.43
2018-12-26T12:20:33.039Z,34.33
2018-12-26T12:23:14.528Z,32.03
2018-12-26T12:25:56.062Z,35.00
2018-12-26T12:28:37.147Z,32.53
2018-12-26T12:31:17.607Z,29.53
2018-12-26T12:33:58.655Z,29.50
2018-12-26T12:36:39.996Z,29.50
2018-12-26T12:39:21.161Z,28.13
2018-12-26T12:42:02.431Z,28.20
2018-12-26T12:44:43.319Z,41.20
2018-12-26T12:47:23.785Z,47.30
2018-12-26T12:50:04.364Z,56.00
2018-12-26T12:52:45.049Z,56.70
2018-12-26T12:55:26.729Z,55.63
2018-12-26T12:58:07.787Z,41.13
2018-12-26T13:00:49.199Z,37.07
2018-12-26T13:03:29.899Z,36.73
2018-12-26T13:06:11.107Z,30.57
2018-12-26T13:08:52.103Z,29.20
2018-12-26T13:11:33.512Z,29.60
2018-12-26T13:14:14.963Z,29.83
2018-12-26T13:16:56.320Z,33.50
2018-12-26T13:19:37.206Z,35.73
2018-12-26T13:22:17.990Z,27.90
2018-12-26T13:24:57.906Z,30.40
2018-12-26T13:27:38.952Z,31.83
2018-12-26T13:30:20.303Z,31.53
2018-12-26T13:33:01.509Z,33.20
2018-12-26T13:35:42.632Z,31.20
2018-12-26T13:38:24.582Z,33.30
2018-12-26T13:41:05.691Z,32.17
2018-12-26T13:43:46.944Z,29.73
2018-12-26T13:46:33.722Z,30.30
2018-12-26T13:49:10.779Z,30.07
2018-12-26T13:51:51.885Z,29.77
2018-12-26T13:54:33.940Z,29.37
2018-12-26T13:57:15.407Z,32.40
2018-12-26T14:00:02.277Z,29.47
2018-12-26T14:02:37.644Z,28.33
2018-12-26T14:05:18.246Z,24.87
2018-12-26T14:07:59.699Z,26.70
2018-12-26T14:10:41.419Z,27.47
2018-12-26T14:13:21.713Z,28.83
2018-12-26T14:16:03.120Z,28.33
2018-12-26T14:18:44.316Z,27.33
2018-12-26T14:21:25.617Z,34.50
2018-12-26T14:24:06.642Z,33.53
2018-12-26T14:26:47.715Z,35.77
2018-12-26T14:29:29.259Z,36.17
2018-12-26T14:32:09.086Z,36.13
2018-12-26T14:34:57.976Z,36.47
2018-12-26T14:37:38.921Z,36.27
2018-12-26T14:40:20.219Z,34.50
2018-12-26T14:43:00.323Z,37.13
2018-12-26T14:45:41.838Z,37.83
2018-12-26T14:48:22.748Z,36.63
2018-12-26T14:51:02.622Z,39.43
2018-12-26T14:53:44.313Z,38.03
2018-12-26T14:56:25.151Z,39.20
2018-12-26T14:59:06.064Z,32.43
2018-12-26T15:01:47.616Z,35.67
2018-12-26T15:04:28.482Z,39.03
2018-12-26T15:07:10.179Z,39.60
2018-12-26T15:09:51.410Z,36.90
2018-12-26T15:12:31.964Z,36.50
2018-12-26T15:15:13.242Z,38.20
2018-12-26T15:17:54.809Z,36.33
2018-12-26T15:20:34.729Z,34.13
2018-12-26T15:23:23.290Z,35.83
2018-12-26T15:26:03.936Z,35.20
2018-12-26T15:28:44.718Z,40.37
2018-12-26T15:31:25.557Z,40.27
2018-12-26T15:34:06.913Z,41.77
2018-12-26T15:36:48.287Z,36.07
2018-12-26T15:39:29.095Z,33.37
2018-12-26T15:42:10.115Z,34.40
2018-12-26T15:44:51.574Z,33.83
2018-12-26T15:47:33.409Z,32.87
2018-12-26T15:50:12.811Z,31.93
2018-12-26T15:52:53.937Z,35.60
2018-12-26T15:55:35.615Z,31.97
2018-12-26T15:58:15.264Z,34.63
2018-12-26T16:01:03.783Z,33.37
2018-12-26T16:03:44.644Z,35.50
2018-12-26T16:06:26.460Z,36.03
2018-12-26T16:09:08.036Z,34.90
2018-12-26T16:11:49.240Z,35.30
2018-12-26T16:14:30.160Z,36.70
2018-12-26T16:17:11.652Z,36.00
2018-12-26T16:19:52.840Z,36.87
2018-12-26T16:22:32.690Z,36.87
2018-12-26T16:25:13.419Z,39.00
2018-12-26T16:27:54.728Z,33.43
2018-12-26T16:30:35.246Z,32.13
2018-12-26T16:33:16.160Z,32.83
2018-12-26T16:35:57.380Z,34.97
2018-12-26T16:38:39.152Z,39.30
2018-12-26T16:41:20.304Z,37.23
2018-12-26T16:44:01.326Z,37.47
2018-12-26T16:46:42.316Z,36.97
2018-12-26T16:49:23.575Z,38.60
2018-12-26T16:52:04.861Z,41.37
2018-12-26T16:54:46.055Z,39.83
2018-12-26T16:57:27.075Z,35.43
2018-12-26T17:00:08.915Z,35.67
2018-12-26T17:02:50.437Z,36.87
2018-12-26T17:05:31.554Z,35.27
2018-12-26T17:08:13.348Z,35.57
2018-12-26T17:10:54.960Z,34.70
2018-12-26T17:13:36.134Z,35.73
2018-12-26T17:16:17.092Z,36.87
2018-12-26T17:18:56.745Z,35.30
2018-12-26T17:21:38.288Z,35.57
2018-12-26T17:24:19.770Z,35.07
2018-12-26T17:26:59.384Z,31.37
2018-12-26T17:29:48.351Z,31.30
2018-12-26T17:32:29.402Z,29.57
2018-12-26T17:35:09.547Z,31.50
2018-12-26T17:37:50.717Z,30.53
2018-12-26T17:40:31.839Z,29.77
2018-12-26T17:43:12.917Z,29.10
2018-12-26T17:45:54.453Z,29.93
2018-12-26T17:48:35.674Z,29.53
2018-12-26T17:51:17.565Z,28.70
2018-12-26T17:54:24.970Z,35.40
2018-12-26T17:57:06.661Z,36.97
2018-12-26T17:59:47.722Z,33.80
2018-12-26T18:02:29.130Z,36.47
2018-12-26T18:05:10.675Z,37.27
2018-12-26T18:07:52.136Z,33.83
2018-12-26T18:10:33.058Z,33.33
2018-12-26T18:13:14.553Z,34.17
2018-12-26T18:15:55.363Z,36.23
2018-12-26T18:18:36.451Z,35.33
2018-12-26T18:21:17.485Z,37.07
2018-12-26T18:23:58.985Z,38.27
2018-12-26T18:26:39.651Z,36.37
2018-12-26T18:29:20.237Z,37.43
2018-12-26T18:32:00.831Z,37.60
2018-12-26T18:34:41.554Z,41.07
2018-12-26T18:37:22.092Z,41.07
2018-12-26T18:40:03.563Z,40.93
2018-12-26T18:42:44.823Z,41.93
2018-12-26T18:45:26.238Z,43.27
2018-12-26T18:48:07.560Z,43.00
2018-12-26T18:50:48.974Z,45.10
2018-12-26T18:53:30.246Z,43.80
2018-12-26T18:56:11.169Z,45.70
2018-12-26T18:58:50.861Z,41.93
2018-12-26T19:01:39.107Z,42.27
2018-12-26T19:04:20.362Z,44.10
2018-12-26T19:06:59.860Z,45.17
2018-12-26T19:09:41.037Z,47.23
2018-12-26T19:12:22.819Z,49.40
2018-12-26T19:15:04.488Z,46.87
2018-12-26T19:17:46.054Z,47.40
2018-12-26T19:20:27.656Z,47.90
2018-12-26T19:23:09.882Z,48.47
2018-12-26T19:25:50.975Z,49.13
2018-12-26T19:28:32.050Z,49.33
2018-12-26T19:31:13.272Z,47.57
2018-12-26T19:33:54.199Z,48.97
2018-12-26T19:36:34.091Z,52.80
2018-12-26T19:39:23.114Z,51.10
2018-12-26T19:42:04.594Z,49.33
2018-12-26T19:44:45.380Z,49.80
2018-12-26T19:47:26.604Z,52.47
2018-12-26T19:50:07.840Z,53.13
2018-12-26T19:52:47.559Z,51.80
2018-12-26T19:58:29.557Z,53.57
2018-12-26T20:01:10.944Z,54.70
2018-12-26T20:03:52.455Z,53.67
2018-12-26T20:06:33.853Z,54.50
2018-12-26T20:09:14.989Z,54.87
2018-12-26T20:11:56.373Z,55.20
2018-12-26T20:14:38.631Z,58.43
2018-12-26T20:17:19.435Z,52.73
2018-12-26T20:20:00.783Z,52.83
2018-12-26T20:22:42.507Z,51.87
2018-12-26T20:25:23.993Z,53.10
2018-12-26T20:28:05.948Z,49.80
2018-12-26T20:30:47.351Z,48.77
2018-12-26T20:33:28.856Z,49.60
2018-12-26T20:36:10.347Z,50.70
2018-12-26T20:38:49.981Z,51.47
2018-12-26T20:44:31.469Z,54.60
2018-12-26T20:47:12.125Z,54.67
2018-12-26T20:49:53.724Z,51.63
2018-12-26T20:52:35.003Z,55.80
2018-12-26T20:55:15.977Z,56.13
2018-12-26T20:57:57.364Z,54.80
2018-12-26T21:00:37.865Z,58.07
2018-12-26T21:03:17.439Z,56.57
2018-12-26T21:05:59.248Z,53.63
2018-12-26T21:08:40.783Z,55.33
2018-12-26T21:11:22.087Z,55.40
2018-12-26T21:14:02.763Z,53.97
2018-12-26T21:16:42.752Z,52.40
2018-12-26T21:19:23.385Z,51.70
2018-12-26T21:22:04.575Z,52.63
2018-12-26T21:24:44.700Z,53.63
2018-12-26T21:27:33.695Z,52.93
2018-12-26T21:30:14.689Z,52.57
2018-12-26T21:32:55.828Z,52.83
2018-12-26T21:35:37.634Z,48.23
2018-12-26T21:38:18.619Z,49.43
2018-12-26T21:41:00.260Z,49.10
2018-12-26T21:43:41.991Z,46.67
2018-12-26T21:46:23.350Z,48.30
2018-12-26T21:49:04.648Z,45.07
2018-12-26T21:51:46.068Z,44.07
2018-12-26T21:54:27.974Z,46.83
2018-12-26T21:57:08.848Z,49.50
2018-12-26T21:59:48.344Z,47.20
2018-12-26T22:02:29.137Z,47.90
2018-12-26T22:05:10.864Z,45.73
2018-12-26T22:07:52.383Z,44.93
2018-12-26T22:10:34.006Z,40.77
2018-12-26T22:13:15.271Z,40.27
2018-12-26T22:15:56.071Z,41.37
2018-12-26T22:18:35.820Z,41.57
2018-12-26T22:21:24.445Z,40.77
2018-12-26T22:24:05.276Z,37.77
2018-12-26T22:26:46.560Z,37.23
2018-12-26T22:29:27.481Z,37.10
2018-12-26T22:32:08.761Z,37.40
2018-12-26T22:34:49.984Z,37.13
2018-12-26T22:37:31.697Z,36.50
2018-12-26T22:40:12.826Z,35.97
2018-12-26T22:42:53.539Z,39.53
2018-12-26T22:45:32.959Z,36.83
2018-12-26T22:48:13.993Z,36.90
2018-12-26T22:50:55.888Z,36.40
2018-12-26T22:53:37.248Z,32.43
2018-12-26T22:56:18.826Z,34.37
2018-12-26T22:58:58.356Z,36.63
2018-12-26T23:01:39.215Z,35.97
2018-12-26T23:04:19.767Z,39.17
2018-12-26T23:06:59.086Z,35.40
2018-12-26T23:09:48.130Z,36.33
2018-12-26T23:12:29.243Z,36.10
2018-12-26T23:15:09.717Z,35.27
2018-12-26T23:17:58.431Z,33.30
2018-12-26T23:20:39.654Z,34.50
2018-12-26T23:23:21.463Z,34.60
2018-12-26T23:26:03.377Z,33.27
2018-12-26T23:28:44.455Z,31.07
2018-12-26T23:31:25.665Z,33.90
2018-12-26T23:34:06.633Z,36.27
2018-12-26T23:36:48.333Z,37.13
2018-12-26T23:39:27.760Z,38.23
2018-12-26T23:42:08.407Z,38.83
2018-12-26T23:44:49.158Z,40.07
2018-12-26T23:47:29.946Z,42.53
2018-12-26T23:50:11.226Z,43.20
2018-12-26T23:52:52.819Z,40.77
2018-12-26T23:55:34.335Z,40.33
2018-12-26T23:58:15.929Z,41.90
